Time;durP1;ratioP1;P1;durP2;ratioP2;P2;SDS_P1;SDS_P2;PMS_P1;PMS_P2;Temp;Humidity;BMP_temperature;BMP_pressure;BME280_temperature;BME280_humidity;BME280_pressure;Samples;Min_cycle;Max_cycle;Signal;HPM_P1;HPM_P2
2023/09/10 00:01:43;;;;;;;0.40;0.40;;;26.30;51.20;;;26.87;37.00;95239.47;5014789;28;20220;-27
2023/09/10 00:04:10;;;;;;;0.30;0.30;;;26.30;51.10;;;26.87;37.13;95244.84;5014971;28;20203;-27
2023/09/10 00:06:38;;;;;;;0.30;0.30;;;26.30;51.20;;;26.86;37.00;95245.97;5015150;28;20206;-28
2023/09/10 00:09:08;;;;;;;0.30;0.30;;;26.30;51.20;;;26.83;37.00;95242.75;5013984;28;20197;-28
2023/09/10 00:11:35;;;;;;;0.30;0.30;;;26.20;51.10;;;26.80;36.95;95239.81;5014045;28;20229;-29
2023/09/10 00:14:02;;;;;;;0.30;0.30;;;26.30;51.20;;;26.79;36.77;95233.66;5013904;28;20201;-27
2023/09/10 00:16:30;;;;;;;0.40;0.40;;;26.30;51.20;;;26.77;37.16;95235.00;5013697;28;20592;-27
2023/09/10 00:18:59;;;;;;;0.50;0.50;;;26.20;51.20;;;26.76;36.96;95239.59;5014673;28;20216;-27
2023/09/10 00:21:26;;;;;;;0.30;0.30;;;26.20;51.10;;;26.74;36.83;95238.25;5014512;28;20292;-27
2023/09/10 00:23:53;;;;;;;0.30;0.30;;;26.20;51.20;;;26.72;37.09;95241.25;5013520;28;20226;-27
2023/09/10 00:26:20;;;;;;;0.30;0.30;;;26.20;51.10;;;26.72;37.03;95238.56;5014591;28;20598;-28
2023/09/10 00:28:49;;;;;;;0.50;0.50;;;26.20;51.10;;;26.71;37.23;95241.50;5014314;28;20682;-27
2023/09/10 00:31:16;;;;;;;0.30;0.30;;;26.20;51.20;;;26.68;37.01;95238.31;5014270;28;20230;-28
2023/09/10 00:33:45;;;;;;;0.30;0.30;;;26.20;51.20;;;26.68;37.28;95242.88;5014552;28;20517;-27
2023/09/10 00:36:12;;;;;;;0.30;0.30;;;26.20;51.20;;;26.68;37.26;95240.19;5012962;28;20645;-26
2023/09/10 00:38:39;;;;;;;0.30;0.30;;;26.10;52.40;;;26.63;37.11;95232.19;5014729;28;20342;-27
2023/09/10 00:41:07;;;;;;;0.30;0.30;;;26.10;51.10;;;26.61;36.83;95232.47;5013241;28;20236;-27
2023/09/10 00:43:35;;;;;;;0.30;0.30;;;26.10;51.20;;;26.62;36.96;95233.28;5014126;28;20194;-29
2023/09/10 00:46:02;;;;;;;0.30;0.30;;;26.10;51.30;;;26.61;37.15;95234.34;5014074;28;20196;-28
2023/09/10 00:48:32;;;;;;;0.40;0.40;;;26.10;51.20;;;26.58;37.26;95234.94;5013714;28;20215;-28
2023/09/10 00:50:59;;;;;;;0.30;0.30;;;26.10;51.20;;;26.58;37.10;95237.63;5013195;28;20254;-28
2023/09/10 00:53:26;;;;;;;0.40;0.40;;;26.00;51.20;;;26.55;37.40;95240.88;5014018;28;20662;-30
2023/09/10 00:55:54;;;;;;;0.30;0.30;;;26.00;51.30;;;26.54;37.01;95242.78;5014251;28;20198;-27
2023/09/10 00:58:22;;;;;;;0.30;0.30;;;26.10;51.30;;;26.51;37.18;95236.09;5013487;28;20253;-26
2023/09/10 01:00:50;;;;;;;0.30;0.30;;;26.00;51.20;;;26.51;37.42;95243.34;5013059;28;20221;-28
2023/09/10 01:03:17;;;;;;;0.30;0.30;;;26.00;51.30;;;26.50;37.17;95242.53;5013279;28;20204;-27
2023/09/10 01:05:44;;;;;;;0.30;0.30;;;26.00;51.30;;;26.47;37.34;95237.72;4996866;28;20201;-27
2023/09/10 01:08:12;;;;;;;0.30;0.30;;;26.00;51.30;;;26.46;37.13;95228.03;5014148;28;20476;-27
2023/09/10 01:10:50;;;;;;;0.30;0.30;;;26.00;51.30;;;26.45;37.20;95231.03;5012754;28;20636;-27
2023/09/10 01:14:07;;;;;;;0.30;0.30;;;26.00;51.30;;;26.40;37.16;95237.25;5013198;28;20194;-26
2023/09/10 01:16:44;;;;;;;0.30;0.30;;;26.00;51.30;;;26.40;37.47;95231.09;5037788;28;20206;-27
2023/09/10 01:19:45;;;;;;;0.30;0.30;;;26.00;51.40;;;26.37;37.13;95235.16;5094231;27;20293;-28
2023/09/10 01:22:21;;;;;;;0.30;0.30;;;25.90;51.20;;;26.36;37.34;95230.84;5013423;28;20621;-26
2023/09/10 01:24:50;;;;;;;0.40;0.40;;;25.90;51.30;;;26.34;37.43;95228.47;5012812;28;20185;-26
2023/09/10 01:27:19;;;;;;;0.45;0.45;;;25.90;51.30;;;26.33;37.45;95231.41;5012306;28;20300;-26
2023/09/10 01:29:46;;;;;;;0.40;0.40;;;25.90;51.30;;;26.32;37.21;95227.13;5012417;28;20230;-29
2023/09/10 01:32:45;;;;;;;0.30;0.30;;;25.90;51.40;;;26.27;37.21;95230.69;5013609;28;20589;-27
2023/09/10 01:35:33;;;;;;;0.40;0.40;;;25.80;51.40;;;26.25;37.22;95229.34;5013017;28;20230;-28
2023/09/10 01:38:17;;;;;;;0.30;0.30;;;25.80;51.40;;;26.25;37.21;95230.16;5012674;28;20197;-27
2023/09/10 01:40:51;;;;;;;0.30;0.30;;;25.80;52.70;;;26.23;37.36;95221.56;5013404;28;20189;-26
2023/09/10 01:43:20;;;;;;;0.50;0.50;;;25.80;51.40;;;26.21;37.52;95224.53;5013480;28;20189;-27
2023/09/10 01:45:48;;;;;;;0.40;0.40;;;25.80;51.50;;;26.21;37.17;95232.59;4996288;28;20208;-29
2023/09/10 01:48:16;;;;;;;0.40;0.40;;;25.80;51.60;;;26.18;37.13;95230.50;4995316;28;20637;-27
2023/09/10 01:50:43;;;;;;;0.47;0.47;;;25.70;51.50;;;26.18;37.40;95233.19;5012074;28;20205;-27
2023/09/10 01:53:10;;;;;;;0.30;0.30;;;25.70;51.50;;;26.17;37.64;95233.44;5012426;28;20283;-26
2023/09/10 01:55:37;;;;;;;0.30;0.30;;;25.70;51.50;;;26.18;37.67;95235.06;5012936;28;20189;-28
2023/09/10 01:58:05;;;;;;;0.30;0.30;;;25.70;51.50;;;26.15;37.49;95233.75;5012933;28;20596;-29
2023/09/10 02:00:32;;;;;;;0.30;0.30;;;25.70;51.60;;;26.15;37.60;95235.63;5012165;28;20624;-27
2023/09/10 02:02:59;;;;;;;0.32;0.32;;;25.70;51.50;;;26.13;37.38;95230.53;5013130;28;20279;-28
2023/09/10 02:05:26;;;;;;;0.50;0.50;;;25.70;51.60;;;26.13;37.40;95232.41;5011878;28;20197;-27
2023/09/10 02:07:53;;;;;;;0.30;0.30;;;25.70;51.60;;;26.11;37.63;95229.19;5013319;28;20234;-26
2023/09/10 02:10:20;;;;;;;0.30;0.30;;;25.70;51.70;;;26.11;37.61;95231.88;5012769;28;20212;-27
2023/09/10 02:12:47;;;;;;;0.30;0.30;;;25.60;51.50;;;26.09;37.62;95224.13;5013267;28;20202;-27
2023/09/10 02:15:17;;;;;;;0.40;0.40;;;25.60;51.50;;;26.08;37.64;95230.56;5012909;28;20225;-28
2023/09/10 02:17:44;;;;;;;0.30;0.30;;;25.60;52.80;;;26.05;37.61;95228.44;5011473;28;20238;-27
2023/09/10 02:20:13;;;;;;;0.35;0.35;;;25.60;51.60;;;26.05;37.59;95229.22;5012697;28;20628;-29
2023/09/10 02:22:41;;;;;;;0.30;0.30;;;25.60;51.60;;;25.99;37.34;95226.88;5012531;28;20199;-27
2023/09/10 02:25:09;;;;;;;0.45;0.45;;;25.60;51.60;;;26.01;37.54;95222.81;5011941;28;20200;-28
2023/09/10 02:27:36;;;;;;;0.50;0.50;;;25.60;51.60;;;26.02;37.84;95231.69;5012380;28;20232;-27
2023/09/10 02:30:04;;;;;;;0.30;0.30;;;25.60;51.70;;;26.00;37.54;95225.78;5011740;28;20542;-27
2023/09/10 02:32:32;;;;;;;0.30;0.30;;;25.50;51.70;;;25.99;37.84;95227.66;5012444;28;20196;-28
2023/09/10 02:34:59;;;;;;;0.30;0.30;;;25.60;51.70;;;25.98;37.79;95223.38;5011621;28;20207;-26
2023/09/10 02:37:26;;;;;;;0.30;0.30;;;25.50;51.70;;;25.97;37.87;95219.06;5012707;28;20523;-28
2023/09/10 02:39:53;;;;;;;0.30;0.30;;;25.50;51.70;;;25.95;37.46;95221.25;5011453;28;20319;-27
2023/09/10 02:42:21;;;;;;;0.30;0.30;;;25.50;51.70;;;25.97;37.88;95220.97;4995334;28;20260;-26
2023/09/10 02:44:48;;;;;;;0.30;0.30;;;25.50;51.70;;;25.93;37.86;95218.03;5012624;28;20521;-28
2023/09/10 02:47:15;;;;;;;0.50;0.50;;;25.50;51.70;;;25.92;37.81;95226.41;5012398;28;20295;-27
2023/09/10 02:49:42;;;;;;;0.40;0.40;;;25.50;51.90;;;25.91;37.57;95227.47;5011922;28;20223;-26
2023/09/10 02:52:09;;;;;;;0.30;0.30;;;25.50;51.90;;;25.90;37.75;95223.97;5012918;28;20640;-27
2023/09/10 02:54:37;;;;;;;0.38;0.38;;;25.50;51.90;;;25.88;37.54;95224.25;5011803;28;20290;-26
2023/09/10 02:57:04;;;;;;;0.50;0.50;;;25.50;51.90;;;25.86;37.55;95229.09;5011272;28;20228;-26
2023/09/10 02:59:31;;;;;;;0.30;0.30;;;25.50;51.90;;;25.85;37.65;95227.53;5012700;28;20221;-28
2023/09/10 03:01:58;;;;;;;0.30;0.30;;;25.40;51.90;;;25.84;37.85;95223.22;5014849;28;20203;-27
2023/09/10 03:04:25;;;;;;;0.30;0.30;;;25.40;51.80;;;25.84;37.76;95225.91;4998749;28;20207;-27
2023/09/10 03:06:53;;;;;;;0.40;0.40;;;25.40;51.80;;;25.84;37.85;95225.09;5014695;28;20240;-27
2023/09/10 03:09:20;;;;;;;0.50;0.50;;;25.40;51.80;;;25.81;37.77;95226.47;5014455;28;20209;-28
2023/09/10 03:11:47;;;;;;;0.30;0.30;;;25.40;51.80;;;25.81;37.92;95229.16;4982536;28;20230;-28
2023/09/10 03:14:16;;;;;;;0.30;0.30;;;25.40;51.90;;;25.79;37.88;95228.63;5014583;28;20208;-26
2023/09/10 03:16:44;;;;;;;0.40;0.40;;;25.40;51.90;;;25.79;37.71;95230.53;5014327;28;20281;-26
2023/09/10 03:19:12;;;;;;;0.30;0.30;;;25.30;51.90;;;25.75;37.83;95221.44;5014243;28;20227;-26
2023/09/10 03:21:39;;;;;;;0.30;0.30;;;25.30;51.90;;;25.74;38.01;95220.63;5014802;28;20294;-28
2023/09/10 03:24:07;;;;;;;0.30;0.30;;;25.30;51.90;;;25.74;38.02;95217.94;5014382;28;20201;-29
2023/09/10 03:26:35;;;;;;;0.43;0.43;;;25.30;51.90;;;25.71;38.09;95211.22;5015808;28;20192;-27
2023/09/10 03:29:02;;;;;;;0.35;0.35;;;25.30;51.90;;;25.69;38.02;95213.38;5014332;28;20204;-27
2023/09/10 03:31:30;;;;;;;0.30;0.30;;;25.30;51.90;;;25.68;37.88;95211.00;5014795;28;20237;-37
2023/09/10 03:33:57;;;;;;;0.22;0.22;;;25.30;51.90;;;25.68;38.13;95216.38;4998411;28;20683;-28
2023/09/10 03:36:25;;;;;;;0.40;0.40;;;25.30;51.90;;;25.67;38.05;95212.88;5014223;28;20257;-28
2023/09/10 03:38:52;;;;;;;0.50;0.50;;;25.30;52.00;;;25.66;37.86;95210.47;4997713;28;20275;-26
2023/09/10 03:41:19;;;;;;;0.30;0.30;;;25.30;52.00;;;25.65;38.08;95208.88;5014158;28;20203;-26
2023/09/10 03:43:46;;;;;;;0.38;0.38;;;25.20;51.90;;;25.63;37.71;95208.34;5015836;28;20206;-28
2023/09/10 03:46:13;;;;;;;0.22;0.22;;;25.20;52.00;;;25.61;37.99;95208.63;5015197;28;20278;-27
2023/09/10 03:48:41;;;;;;;0.63;0.63;;;25.20;52.10;;;25.59;37.96;95208.09;5014266;28;20191;-28
2023/09/10 03:51:08;;;;;;;0.40;0.40;;;25.20;52.00;;;25.58;38.01;95206.50;5014020;28;20197;-29
2023/09/10 03:53:35;;;;;;;0.30;0.30;;;25.20;52.00;;;25.55;37.88;95197.13;5014075;28;20270;-26
2023/09/10 03:56:02;;;;;;;0.30;0.30;;;25.20;52.00;;;25.57;38.07;95203.03;5014833;28;20510;-27
2023/09/10 03:58:30;;;;;;;0.40;0.40;;;25.20;52.10;;;25.55;37.82;95207.88;5013772;28;20200;-26
2023/09/10 04:00:58;;;;;;;0.50;0.50;;;25.20;52.10;;;25.54;38.03;95197.41;5013733;28;20226;-26
2023/09/10 04:03:28;;;;;;;0.30;0.30;;;25.20;52.20;;;25.53;38.17;95204.66;4997659;28;20221;-26
2023/09/10 04:05:55;;;;;;;0.30;0.30;;;25.20;52.20;;;25.51;38.03;95201.47;5013790;28;20210;-27
2023/09/10 04:08:22;;;;;;;0.50;0.50;;;25.20;52.10;;;25.50;38.01;95196.34;5014512;28;20523;-27
2023/09/10 04:10:49;;;;;;;0.30;0.30;;;25.10;52.10;;;25.49;38.12;95198.25;5015131;28;20193;-27
2023/09/10 04:13:18;;;;;;;0.32;0.32;;;25.10;52.10;;;25.48;38.20;95204.69;5013697;28;20227;-27
2023/09/10 04:15:45;;;;;;;0.32;0.32;;;25.10;52.10;;;25.44;38.14;95200.16;5015097;28;20295;-26
2023/09/10 04:18:12;;;;;;;0.40;0.40;;;25.10;52.20;;;25.46;38.33;95198.00;5014452;28;20666;-27
2023/09/10 04:20:39;;;;;;;0.30;0.30;;;25.10;52.20;;;25.42;38.21;95203.13;5014402;28;20258;-28
2023/09/10 04:23:06;;;;;;;0.57;0.57;;;25.10;52.20;;;25.44;38.37;95205.53;5014415;28;20271;-29
2023/09/10 04:25:34;;;;;;;0.40;0.40;;;25.10;52.20;;;25.42;38.44;95201.22;5013510;28;20294;-26
2023/09/10 04:28:01;;;;;;;0.40;0.40;;;25.10;52.20;;;25.41;38.29;95204.19;5013349;28;20234;-28
2023/09/10 04:30:30;;;;;;;0.30;0.30;;;25.10;52.20;;;25.41;38.45;95204.19;5013432;28;20275;-27
2023/09/10 04:32:57;;;;;;;0.30;0.30;;;25.00;52.20;;;25.37;38.28;95203.13;5013381;28;20285;-27
2023/09/10 04:35:25;;;;;;;0.40;0.40;;;25.00;52.20;;;25.37;38.33;95203.13;5013598;28;20208;-28
2023/09/10 04:37:52;;;;;;;0.30;0.30;;;25.00;52.30;;;25.36;38.29;95204.22;5014498;28;20616;-27
2023/09/10 04:40:19;;;;;;;0.38;0.38;;;25.00;52.30;;;25.34;38.43;95212.53;5014344;28;20326;-29
2023/09/10 04:42:47;;;;;;;0.40;0.40;;;25.00;52.20;;;25.33;38.21;95210.13;5014672;28;20218;-26
2023/09/10 04:45:14;;;;;;;0.40;0.40;;;25.00;52.40;;;25.34;38.41;95217.09;5013255;28;20219;-27
2023/09/10 04:47:42;;;;;;;0.50;0.50;;;25.00;52.40;;;25.32;38.49;95214.69;5013421;28;20238;-27
2023/09/10 04:50:09;;;;;;;0.50;0.50;;;25.00;52.40;;;25.30;38.20;95214.16;5013087;28;20225;-28
2023/09/10 04:52:39;;;;;;;0.40;0.40;;;25.00;52.40;;;25.30;38.55;95222.22;5014599;28;20190;-26
2023/09/10 04:55:06;;;;;;;0.50;0.50;;;24.90;52.40;;;25.29;38.40;95220.63;5014292;28;20207;-26
2023/09/10 04:57:34;;;;;;;0.30;0.30;;;24.90;52.40;;;25.25;38.83;95216.88;5013011;28;20202;-26
2023/09/10 05:00:02;;;;;;;0.50;0.50;;;24.90;52.40;;;25.28;38.49;95220.91;5014363;28;20226;-26
2023/09/10 05:02:29;;;;;;;0.50;0.50;;;24.90;52.40;;;25.26;38.70;95224.66;4997009;28;20218;-27
2023/09/10 05:04:57;;;;;;;0.40;0.40;;;24.90;52.50;;;25.25;38.73;95222.25;5013836;28;20194;-26
2023/09/10 05:07:24;;;;;;;0.40;0.40;;;24.90;52.50;;;25.25;38.31;95222.25;5012995;28;20203;-27
2023/09/10 05:09:51;;;;;;;0.40;0.40;;;24.90;52.50;;;25.25;38.65;95230.31;4996482;28;20205;-27
2023/09/10 05:12:18;;;;;;;0.40;0.40;;;24.90;52.60;;;25.22;38.54;95223.63;5012907;28;20217;-26
2023/09/10 05:14:45;;;;;;;0.30;0.30;;;24.90;52.60;;;25.23;38.62;95229.78;5013679;28;20200;-28
2023/09/10 05:17:13;;;;;;;0.30;0.30;;;24.90;52.60;;;25.21;38.72;95227.38;5012558;28;20245;-27
2023/09/10 05:19:41;;;;;;;0.43;0.43;;;24.90;52.70;;;25.21;38.70;95230.06;5013597;28;20277;-26
2023/09/10 05:22:08;;;;;;;0.40;0.40;;;24.90;52.70;;;25.21;38.68;95232.75;5011692;28;20237;-27
2023/09/10 05:24:35;;;;;;;0.30;0.30;;;24.90;52.80;;;25.20;38.80;95228.44;5012709;28;20260;-26
2023/09/10 05:27:03;;;;;;;0.30;0.30;;;24.90;52.90;;;25.22;38.70;95233.56;5013120;28;20207;-28
2023/09/10 05:29:30;;;;;;;0.40;0.40;;;24.90;52.90;;;25.21;38.88;95238.13;5013697;28;20194;-26
2023/09/10 05:31:57;;;;;;;0.30;0.30;;;24.90;52.90;;;25.21;38.92;95234.63;5012445;28;20649;-28
2023/09/10 05:34:24;;;;;;;0.30;0.30;;;24.90;53.00;;;25.21;39.13;95230.06;5013402;28;20210;-26
2023/09/10 05:36:52;;;;;;;0.40;0.40;;;24.90;53.00;;;25.20;39.02;95225.78;5013577;28;20215;-26
2023/09/10 05:39:19;;;;;;;0.40;0.40;;;24.90;53.20;;;25.21;39.02;95231.97;5012419;28;20203;-27
2023/09/10 05:41:46;;;;;;;0.38;0.38;;;24.90;53.20;;;25.20;38.98;95239.19;5012392;28;20266;-26
2023/09/10 05:44:13;;;;;;;0.40;0.40;;;24.90;53.20;;;25.22;39.09;95247.78;5012263;28;20519;-28
2023/09/10 05:46:41;;;;;;;0.40;0.40;;;24.90;53.20;;;25.20;39.13;95246.44;5013729;28;20210;-26
2023/09/10 05:49:08;;;;;;;0.32;0.32;;;24.90;53.20;;;25.20;39.22;95247.25;5013339;28;20688;-27
2023/09/10 05:51:35;;;;;;;0.55;0.55;;;24.90;53.30;;;25.20;39.33;95246.44;5013100;28;20220;-27
2023/09/10 05:54:03;;;;;;;0.30;0.30;;;24.90;53.40;;;25.20;39.32;95255.28;5012378;28;20229;-27
2023/09/10 05:56:30;;;;;;;0.30;0.30;;;24.90;53.30;;;25.20;39.35;95249.94;5013583;28;20191;-39
2023/09/10 05:59:01;;;;;;;0.40;0.40;;;24.90;53.40;;;25.21;39.39;95254.22;4996182;28;20211;-27
2023/09/10 06:01:28;;;;;;;0.38;0.38;;;24.90;53.40;;;25.22;39.11;95250.47;5012899;28;20214;-26
2023/09/10 06:03:59;;;;;;;0.30;0.30;;;24.90;53.50;;;25.21;39.56;95250.75;5012223;28;20230;-28
2023/09/10 06:06:27;;;;;;;0.40;0.40;;;24.90;53.50;;;25.21;39.39;95251.53;5011980;28;20195;-27
2023/09/10 06:08:56;;;;;;;0.30;0.30;;;24.90;53.50;;;25.22;39.37;95255.84;5011831;28;20217;-27
2023/09/10 06:11:23;;;;;;;0.50;0.50;;;24.90;53.60;;;25.19;39.63;95231.41;5012187;28;20226;-27
2023/09/10 06:13:50;;;;;;;0.30;0.30;;;24.90;53.70;;;25.22;39.57;95255.03;5011888;28;20267;-28
2023/09/10 06:16:17;;;;;;;0.40;0.40;;;24.90;53.80;;;25.23;39.58;95254.75;5012735;28;20295;-27
2023/09/10 06:18:45;;;;;;;0.47;0.47;;;25.00;53.80;;;25.23;39.46;95252.06;5011490;28;20233;-27
2023/09/10 06:21:12;;;;;;;0.50;0.50;;;25.00;53.90;;;25.24;39.81;95255.53;5011695;28;20352;-26
2023/09/10 06:23:39;;;;;;;0.35;0.35;;;25.00;53.90;;;25.24;39.79;95253.69;5012654;28;20226;-27
2023/09/10 06:26:07;;;;;;;0.30;0.30;;;25.00;54.00;;;25.26;39.72;95251.50;5011687;28;20651;-26
2023/09/10 06:28:34;;;;;;;0.38;0.38;;;25.00;54.00;;;25.26;39.83;95256.88;4996115;28;20243;-26
2023/09/10 06:31:01;;;;;;;0.30;0.30;;;25.00;54.00;;;25.30;39.64;95262.50;4995388;28;20216;-28
2023/09/10 06:33:29;;;;;;;0.40;0.40;;;25.00;54.00;;;25.31;39.89;95257.94;5011506;28;20227;-28
2023/09/10 06:35:56;;;;;;;0.30;0.30;;;25.00;54.00;;;25.29;39.78;95250.16;4995455;28;20294;-29
2023/09/10 06:38:23;;;;;;;0.50;0.50;;;25.00;54.10;;;25.32;39.93;95254.19;4995415;28;20207;-27
2023/09/10 06:40:51;;;;;;;0.40;0.40;;;25.10;54.10;;;25.32;40.16;95264.94;5011323;28;20215;-27
2023/09/10 06:43:19;;;;;;;0.30;0.30;;;25.00;54.00;;;25.34;39.92;95260.88;5011715;28;20206;-28
2023/09/10 06:46:05;;;;;;;0.30;0.30;;;25.10;54.10;;;25.34;39.94;95260.88;5012605;28;20192;-29
2023/09/10 06:48:32;;;;;;;0.40;0.40;;;25.10;54.10;;;25.35;39.94;95267.03;5012565;28;20202;-28
2023/09/10 06:51:03;;;;;;;0.30;0.30;;;25.10;54.20;;;25.37;40.03;95275.63;5012419;28;20276;-27
2023/09/10 06:53:30;;;;;;;0.40;0.40;;;25.10;54.10;;;25.38;40.10;95269.22;5011774;28;20553;-27
2023/09/10 06:55:57;;;;;;;0.30;0.30;;;25.10;54.20;;;25.39;40.16;95270.81;5012223;28;20206;-26
2023/09/10 06:58:24;;;;;;;0.30;0.30;;;25.10;54.20;;;25.41;40.21;95271.34;5012227;28;20203;-26
2023/09/10 07:00:51;;;;;;;0.38;0.38;;;25.10;54.30;;;25.41;40.35;95279.38;5012643;28;20222;-27
2023/09/10 07:03:18;;;;;;;0.30;0.30;;;25.20;54.40;;;25.42;40.10;95273.72;5011603;28;20275;-26
2023/09/10 07:05:46;;;;;;;0.40;0.40;;;25.20;54.40;;;25.42;40.39;95273.72;5012345;28;20198;-27
2023/09/10 07:08:13;;;;;;;0.30;0.30;;;25.20;54.40;;;25.46;40.10;95267.81;5012002;28;20214;-26
2023/09/10 07:10:40;;;;;;;0.30;0.30;;;25.20;54.30;;;25.48;40.18;95273.72;5012110;28;20245;-27
2023/09/10 07:13:07;;;;;;;0.30;0.30;;;25.20;54.50;;;25.48;40.39;95276.41;5012270;28;20583;-27
2023/09/10 07:15:36;;;;;;;0.30;0.30;;;25.20;54.60;;;25.48;40.20;95279.88;5012365;28;20204;-27
2023/09/10 07:18:04;;;;;;;0.40;0.40;;;25.20;54.60;;;25.48;40.18;95279.88;5011798;28;20238;-26
2023/09/10 07:20:31;;;;;;;0.40;0.40;;;25.20;54.40;;;25.51;40.53;95281.22;5011759;28;20227;-26
2023/09/10 07:22:58;;;;;;;0.30;0.30;;;25.30;54.50;;;25.51;40.27;95276.66;5011054;28;20285;-28
2023/09/10 07:25:25;;;;;;;0.30;0.30;;;25.30;54.50;;;25.53;40.40;95282.53;5011860;28;20202;-26
2023/09/10 07:27:56;;;;;;;0.30;0.30;;;25.30;54.50;;;25.54;40.35;95272.59;5012381;28;20183;-28
2023/09/10 07:30:23;;;;;;;0.40;0.40;;;25.30;54.50;;;25.55;40.29;95284.97;5011832;28;20261;-27
2023/09/10 07:32:50;;;;;;;0.30;0.30;;;25.30;54.50;;;25.56;40.31;95286.53;5011215;28;20624;-27
2023/09/10 07:35:17;;;;;;;0.30;0.30;;;25.30;54.40;;;25.56;40.40;95284.69;5011732;28;20200;-27
2023/09/10 07:37:44;;;;;;;0.40;0.40;;;25.30;54.40;;;25.60;40.10;95284.94;5011958;28;20200;-28
2023/09/10 07:40:13;;;;;;;0.35;0.35;;;25.30;54.50;;;25.62;40.37;95284.63;5010632;28;20234;-26
2023/09/10 07:42:41;;;;;;;0.40;0.40;;;25.30;54.50;;;25.62;40.43;95281.94;5011875;28;20584;-26
2023/09/10 07:45:14;;;;;;;0.40;0.40;;;25.40;54.50;;;25.63;40.46;95281.66;5011923;28;20620;-28
2023/09/10 07:47:41;;;;;;;0.40;0.40;;;25.40;54.40;;;25.65;40.29;95284.88;5015027;28;20178;-27
2023/09/10 07:50:09;;;;;;;0.30;0.30;;;25.40;54.50;;;25.67;40.30;95290.78;5014382;28;20205;-28
2023/09/10 07:52:37;;;;;;;0.30;0.30;;;25.40;54.40;;;25.67;40.58;95287.28;5014399;28;20213;-27
2023/09/10 07:55:04;;;;;;;0.25;0.25;;;25.40;54.60;;;25.69;40.41;95285.13;5015118;28;20705;-27
2023/09/10 07:57:31;;;;;;;0.30;0.30;;;25.50;54.60;;;25.70;40.55;95284.06;5015116;28;20228;-27
2023/09/10 07:59:58;;;;;;;0.47;0.47;;;25.50;54.80;;;25.71;40.55;95286.47;5014756;28;20192;-27
2023/09/10 08:02:27;;;;;;;0.30;0.30;;;25.50;54.90;;;25.75;40.61;95281.31;5010108;28;20206;-27
2023/09/10 08:04:55;;;;;;;0.32;0.32;;;25.50;56.20;;;25.73;40.90;95284.31;4995407;28;20266;-28
2023/09/10 08:07:22;;;;;;;0.30;0.30;;;25.50;55.00;;;25.76;40.52;95285.63;4995080;28;20289;-27
2023/09/10 08:09:49;;;;;;;0.30;0.30;;;25.50;54.90;;;25.79;40.58;95281.56;4994808;28;20285;-29
2023/09/10 08:12:16;;;;;;;0.30;0.30;;;25.50;55.00;;;25.79;40.91;95292.31;4994411;28;20197;-28
2023/09/10 08:14:43;;;;;;;0.30;0.30;;;25.50;55.10;;;25.81;40.82;95287.47;4995240;28;20630;-27
2023/09/10 08:17:10;;;;;;;0.30;0.30;;;25.60;55.20;;;25.83;40.90;95287.97;4995251;28;20266;-29
2023/09/10 08:19:37;;;;;;;0.30;0.30;;;25.60;55.20;;;25.84;40.88;95290.41;4995928;28;20216;-28
2023/09/10 08:22:04;;;;;;;0.40;0.40;;;25.60;55.20;;;25.86;40.78;95290.91;5010936;28;20221;-27
2023/09/10 08:24:31;;;;;;;0.30;0.30;;;25.60;55.20;;;25.87;41.21;95284.47;5007795;28;20201;-28
2023/09/10 08:27:03;;;;;;;0.38;0.38;;;25.60;55.20;;;25.87;40.86;95280.97;4995741;28;20535;-27
2023/09/10 08:29:30;;;;;;;0.45;0.45;;;25.60;55.40;;;25.89;41.17;95276.13;5002554;28;20205;-28
2023/09/10 08:31:58;;;;;;;0.30;0.30;;;25.70;55.40;;;25.92;40.92;95280.16;5014780;28;20509;-28
2023/09/10 08:34:26;;;;;;;0.40;0.40;;;25.70;55.40;;;25.93;41.37;95274.50;5015073;28;20191;-27
2023/09/10 08:36:53;;;;;;;0.30;0.30;;;25.70;55.50;;;25.95;41.19;95276.88;5014769;28;20197;-27
2023/09/10 08:39:20;;;;;;;0.30;0.30;;;25.70;55.50;;;25.98;40.93;95273.66;5013756;28;20617;-27
2023/09/10 08:42:06;;;;;;;0.30;0.30;;;25.70;55.50;;;25.99;41.63;95278.75;5014293;28;20259;-27
2023/09/10 08:44:34;;;;;;;0.30;0.30;;;25.70;55.50;;;26.00;41.23;95271.47;5012596;28;20201;-30
2023/09/10 08:47:03;;;;;;;0.30;0.30;;;25.70;55.50;;;26.03;41.41;95277.06;5013250;28;20205;-26
2023/09/10 08:49:33;;;;;;;0.40;0.40;;;25.80;55.60;;;26.06;41.58;95278.41;5013775;28;20220;-28
2023/09/10 08:52:01;;;;;;;0.30;0.30;;;25.80;55.70;;;26.06;41.49;95278.41;5014263;28;20184;-27
2023/09/10 08:54:28;;;;;;;0.30;0.30;;;25.80;55.80;;;26.09;41.39;95280.56;5013548;28;20197;-27
2023/09/10 08:56:56;;;;;;;0.40;0.40;;;25.90;55.70;;;26.12;41.44;95268.44;5010949;28;20551;-28
2023/09/10 08:59:23;;;;;;;0.30;0.30;;;25.90;55.80;;;26.13;41.46;95270.06;5002886;28;20258;-27
2023/09/10 09:01:51;;;;;;;0.40;0.40;;;25.90;55.70;;;26.17;41.49;95279.16;5014220;28;20231;-28
2023/09/10 09:04:18;;;;;;;0.30;0.30;;;25.90;55.70;;;26.18;41.33;95270.00;5014102;28;20688;-27
2023/09/10 09:06:53;;;;;;;0.30;0.30;;;25.90;55.80;;;26.20;41.43;95274.00;5013039;28;20196;-28
2023/09/10 09:09:25;;;;;;;0.30;0.30;;;25.90;55.80;;;26.21;41.27;95274.84;5013830;28;20373;-28
2023/09/10 09:11:54;;;;;;;0.40;0.40;;;25.90;55.70;;;26.23;41.31;95275.31;5009176;28;20262;-27
2023/09/10 09:14:23;;;;;;;0.30;0.30;;;26.00;55.90;;;26.26;41.44;95274.00;5003255;28;20207;-29
2023/09/10 09:16:52;;;;;;;0.30;0.30;;;26.00;55.80;;;26.28;41.40;95271.78;5080100;28;20283;-26
2023/09/10 09:19:22;;;;;;;0.20;0.20;;;26.00;55.80;;;26.28;41.11;95267.25;4994952;28;20196;-27
2023/09/10 09:21:50;;;;;;;0.30;0.30;;;26.10;56.00;;;26.33;41.46;95272.56;5007583;28;20232;-27
2023/09/10 09:24:21;;;;;;;0.30;0.30;;;26.00;55.90;;;26.34;41.61;95266.09;5013805;28;20205;-28
2023/09/10 09:26:51;;;;;;;0.30;0.30;;;26.10;56.10;;;26.38;41.48;95263.66;5005791;28;20204;-26
2023/09/10 09:29:19;;;;;;;0.30;0.30;;;26.10;56.00;;;26.40;41.69;95264.16;5013502;28;20273;-28
2023/09/10 09:31:46;;;;;;;0.30;0.30;;;26.10;56.00;;;26.43;41.50;95265.50;5013593;28;20218;-31
2023/09/10 09:34:14;;;;;;;0.25;0.25;;;26.10;56.00;;;26.46;41.73;95267.59;5013422;28;20642;-27
2023/09/10 09:36:42;;;;;;;0.30;0.30;;;26.10;56.00;;;26.48;41.67;95270.81;5012763;28;20187;-27
2023/09/10 09:39:11;;;;;;;0.30;0.30;;;26.20;56.00;;;26.49;41.60;95257.06;5013444;28;20205;-27
2023/09/10 09:41:38;;;;;;;0.25;0.25;;;26.20;56.00;;;26.51;41.74;95265.69;5011219;28;20577;-29
2023/09/10 09:44:07;;;;;;;0.30;0.30;;;26.20;56.10;;;26.53;41.41;95260.78;5018298;28;20277;-27
2023/09/10 09:46:34;;;;;;;0.20;0.20;;;26.20;56.00;;;26.57;41.64;95262.94;5059312;28;20208;-27
2023/09/10 09:49:02;;;;;;;0.30;0.30;;;26.30;56.10;;;26.58;41.62;95257.25;4993689;28;20226;-27
2023/09/10 09:51:29;;;;;;;0.30;0.30;;;26.30;56.20;;;26.59;41.73;95255.38;4990330;28;20259;-27
2023/09/10 09:53:56;;;;;;;0.30;0.30;;;26.30;56.00;;;26.64;41.46;95260.69;4993508;28;20211;-27
2023/09/10 09:56:23;;;;;;;0.30;0.30;;;26.30;56.10;;;26.66;41.80;95250.47;5008164;28;20215;-28
2023/09/10 09:58:50;;;;;;;0.30;0.30;;;26.30;56.10;;;26.69;41.57;95250.66;4997010;28;20684;-28
2023/09/10 10:13:41;;;;;;;0.30;0.30;;;26.40;55.50;;;27.71;41.10;95238.91;5133969;27;20550;-20
2023/09/10 10:16:09;;;;;;;0.25;0.25;;;27.00;57.30;;;27.72;41.01;95237.00;5095314;28;20568;-21
2023/09/10 10:18:37;;;;;;;0.30;0.30;;;27.10;56.70;;;27.71;40.92;95233.53;5112646;28;20214;-21
2023/09/10 10:21:05;;;;;;;0.20;0.20;;;27.30;56.20;;;27.71;40.84;95235.41;5112735;28;20273;-20
2023/09/10 10:23:33;;;;;;;0.30;0.30;;;27.40;55.90;;;27.71;40.91;95235.41;5094910;28;20191;-21
2023/09/10 10:26:05;;;;;;;0.20;0.20;;;27.40;55.60;;;27.68;40.82;95228.69;5128935;28;20196;-20
2023/09/10 10:28:35;;;;;;;0.20;0.20;;;27.40;55.40;;;27.64;41.31;95235.78;5094984;28;20691;-20
2023/09/10 10:31:15;;;;;;;0.30;0.30;;;27.40;55.40;;;27.64;40.99;95227.69;5112349;28;20227;-20
2023/09/10 10:33:53;;;;;;;0.30;0.30;;;27.40;55.30;;;27.58;40.58;95216.19;5112911;28;20193;-20
2023/09/10 10:37:03;;;;;;;0.20;0.20;;;27.40;55.30;;;27.54;41.14;95217.06;5094609;28;20306;-20
2023/09/10 10:40:12;;;;;;;0.28;0.28;;;27.40;55.30;;;27.50;40.96;95216.84;5095131;28;20184;-20